Overview Statistics Trail Chart Weather Telemetry Raw packets
 

This is the latest recevied weather packets stored in our database for station/object OE5MMP-13. If no packets are shown the sender has not sent any weather packets the latest 10 day(s).

<< 31 32 33 34 35 36 37 >>
Time Temp. Humidity Pressure Rain* Wind** Luminosity Snow
1788215009 18.33° C 67% 1021.3 hPa 0 mm - 0 W/m² -
1788214409 17.78° C 68% 1021.2 hPa 0 mm - 0 W/m² -
1788213809 18.33° C 67% 1021 hPa 0 mm - 0 W/m² -
1788213220 17.78° C 67% 1020.8 hPa 0 mm - 0 W/m² -
1788212609 17.78° C 68% 1020.6 hPa 0 mm - 0 W/m² -
1788212009 17.78° C 68% 1020.4 hPa 0 mm - 0 W/m² -
1788211409 17.78° C 67% 1020.4 hPa 0 mm - 0 W/m² -
1788210809 18.33° C 67% 1020.4 hPa 0 mm - 0 W/m² -
1788210209 18.89° C 65% 1020.3 hPa 0 mm - 0 W/m² -
1788209608 18.89° C 65% 1020.3 hPa 0 mm - 0 W/m² -
1788209008 18.33° C 66% 1020.1 hPa 0 mm - 0 W/m² -
1788208409 18.89° C 66% 1019.9 hPa 0 mm - 0 W/m² -
1788207808 18.89° C 66% 1019.9 hPa 0 mm - 0 W/m² -
1788207208 18.89° C 65% 1019.8 hPa 0 mm - 0 W/m² -
1788206608 18.89° C 67% 1019.7 hPa 0 mm - 0 W/m² -
1788206008 18.89° C 68% 1019.7 hPa 0 mm - 0 W/m² -
1788205408 18.89° C 69% 1019.6 hPa 0 mm - 0 W/m² -
1788204808 18.33° C 70% 1019.3 hPa 0.51 mm - 0 W/m² -
1788204208 18.33° C 71% 1019.2 hPa 0.51 mm - 0 W/m² -
1788203608 18.33° C 72% 1018.9 hPa 0.51 mm - 0 W/m² -
1788203008 18.33° C 73% 1018.6 hPa 0.51 mm - 0 W/m² -
1788202408 18.33° C 73% 1018.3 hPa 0.76 mm - 0 W/m² -
1788201808 19.44° C 70% 1018.4 hPa 0.76 mm - 0 W/m² -
1788201208 19.44° C 69% 1018.2 hPa 0.25 mm - 0 W/m² -
1788200608 19.44° C 72% 1017.9 hPa 0.25 mm - 0 W/m² -

* Rain latest hour (hover to see other rain measurements)
** Current wind speed in m/s (hover to see current wind gust speed)